Xinguara, Brazil
Current Conditions -  °F | °C
As of 4:00 PM on Wednesday 17 Dec 2014 (Local Time) from SBMA Reporting Station
Overcast Overcast  
Wind Chill: 84°   Ceiling: 8000
Heat Index: 92°   Visibility: 6mi
Dew Point: 75°   Wind: 5mph
Humidity: 74%   Direction: 130°SE
Pressure: 29.83"   Gusts: NA
Location:  7.1°S, 49.95°W
Report Text: SBMA 171900Z 13004KT 9999 SCT020 OVC080 29/24 Q1010
Loading
Personal Weather Stations






























Interactive Weather Map New forecast layout! Learn more

10-Day Weather Forecast

Advertisements
Track Severe Weather on mobile